createdAt,value
2019-01-17T00:01:35.661Z,38.30
2019-01-17T00:04:05.960Z,38.10
2019-01-17T00:06:51.100Z,38.20
2019-01-17T00:09:24.014Z,38.30
2019-01-17T00:11:56.573Z,38.30
2019-01-17T00:14:44.495Z,37.90
2019-01-17T00:17:14.548Z,37.80
2019-01-17T00:19:44.641Z,38.30
2019-01-17T00:22:29.726Z,38.10
2019-01-17T00:25:08.714Z,38.50
2019-01-17T00:27:56.891Z,38.50
2019-01-17T00:30:41.994Z,38.70
2019-01-17T00:33:28.115Z,38.50
2019-01-17T00:36:01.030Z,39.30
2019-01-17T00:38:42.724Z,38.40
2019-01-17T00:41:27.892Z,38.60
2019-01-17T00:44:09.704Z,38.70
2019-01-17T00:46:48.848Z,38.50
2019-01-17T00:49:19.167Z,38.70
2019-01-17T00:52:05.163Z,38.80
2019-01-17T00:54:40.908Z,38.50
2019-01-17T00:57:26.153Z,38.30
2019-01-17T01:00:05.114Z,38.10
2019-01-17T01:02:50.295Z,38.30
2019-01-17T01:05:23.105Z,38.30
2019-01-17T01:08:11.183Z,38.30
2019-01-17T01:10:57.461Z,38.30
2019-01-17T01:13:27.497Z,38.30
2019-01-17T01:15:58.455Z,38.60
2019-01-17T01:18:28.585Z,38.40
2019-01-17T01:21:04.264Z,38.80
2019-01-17T01:23:40.104Z,39.00
2019-01-17T01:26:12.822Z,38.70
2019-01-17T01:28:42.879Z,38.80
2019-01-17T01:31:25.157Z,38.90
2019-01-17T01:34:00.652Z,38.90
2019-01-17T01:36:33.659Z,38.90
2019-01-17T01:39:09.184Z,39.10
2019-01-17T01:41:42.237Z,39.30
2019-01-17T01:44:21.144Z,39.40
2019-01-17T01:46:51.212Z,39.60
2019-01-17T01:49:30.618Z,39.90
2019-01-17T01:52:03.282Z,40.10
2019-01-17T01:54:31.706Z,40.40
2019-01-17T01:57:00.164Z,40.90
2019-01-17T01:59:28.646Z,40.80
2019-01-17T02:01:57.069Z,40.80
2019-01-17T02:04:25.471Z,40.90
2019-01-17T02:06:53.884Z,41.00
2019-01-17T02:09:22.330Z,41.20
2019-01-17T02:11:50.951Z,41.60
2019-01-17T02:14:19.739Z,41.80
2019-01-17T02:16:48.228Z,41.70
2019-01-17T02:19:16.621Z,41.90
2019-01-17T02:21:45.077Z,42.10
2019-01-17T02:24:13.465Z,42.40
2019-01-17T02:26:42.476Z,42.60
2019-01-17T02:29:10.972Z,42.90
2019-01-17T02:31:39.399Z,43.10
2019-01-17T02:34:07.810Z,43.10
2019-01-17T02:36:36.216Z,43.50
2019-01-17T02:39:06.687Z,43.70
2019-01-17T02:41:35.173Z,43.90
2019-01-17T02:44:03.600Z,44.10
2019-01-17T02:46:32.123Z,44.60
2019-01-17T02:49:00.646Z,44.80
2019-01-17T02:51:29.110Z,45.00
2019-01-17T02:53:57.548Z,45.00
2019-01-17T02:56:25.957Z,45.30
2019-01-17T02:58:54.403Z,45.60
2019-01-17T03:01:22.894Z,45.90
2019-01-17T03:03:51.672Z,46.10
2019-01-17T03:06:20.103Z,46.30
2019-01-17T03:08:48.522Z,46.40
2019-01-17T03:11:17.021Z,46.60
2019-01-17T03:13:45.475Z,47.00
2019-01-17T03:16:14.248Z,47.20
2019-01-17T03:18:42.713Z,47.70
2019-01-17T03:21:11.202Z,47.90
2019-01-17T03:23:39.713Z,48.00
2019-01-17T03:26:08.116Z,48.00
2019-01-17T03:28:36.679Z,48.00
2019-01-17T03:31:05.163Z,48.10
2019-01-17T03:33:33.938Z,49.20
2019-01-17T03:36:02.384Z,48.70
2019-01-17T03:38:30.800Z,49.00
2019-01-17T03:40:59.339Z,49.00
2019-01-17T03:43:27.791Z,49.00
2019-01-17T03:45:56.232Z,49.40
2019-01-17T03:48:24.708Z,49.50
2019-01-17T03:50:53.116Z,49.60
2019-01-17T03:53:21.525Z,49.50
2019-01-17T03:55:49.992Z,49.50
2019-01-17T03:58:18.416Z,49.70
2019-01-17T04:00:46.884Z,49.90
2019-01-17T04:03:15.629Z,50.00
2019-01-17T04:05:44.032Z,49.90
2019-01-17T04:08:12.471Z,50.00
2019-01-17T04:10:40.869Z,50.20
2019-01-17T04:13:09.287Z,50.30
2019-01-17T04:15:37.672Z,50.70
2019-01-17T04:18:06.137Z,50.60
2019-01-17T04:20:34.554Z,50.70
2019-01-17T04:23:02.988Z,50.70
2019-01-17T04:25:31.510Z,51.10
2019-01-17T04:27:59.921Z,51.20
2019-01-17T04:30:28.400Z,51.50
2019-01-17T04:32:56.817Z,51.50
2019-01-17T04:35:25.239Z,51.70
2019-01-17T04:37:53.668Z,51.90
2019-01-17T04:40:22.463Z,51.60
2019-01-17T04:42:51.145Z,51.70
2019-01-17T04:45:19.574Z,51.70
2019-01-17T04:47:48.047Z,51.90
2019-01-17T04:50:16.476Z,51.90
2019-01-17T04:52:44.887Z,51.90
2019-01-17T04:55:14.168Z,52.20
2019-01-17T04:57:42.639Z,52.50
2019-01-17T05:00:17.044Z,53.50
2019-01-17T05:02:45.489Z,53.00
2019-01-17T05:05:14.277Z,53.40
2019-01-17T05:07:42.698Z,53.50
2019-01-17T05:10:13.961Z,53.90
2019-01-17T05:12:42.757Z,54.30
2019-01-17T05:15:11.818Z,54.40
2019-01-17T05:17:40.213Z,54.60
2019-01-17T05:20:11.533Z,54.70
2019-01-17T05:22:40.220Z,54.50
2019-01-17T05:25:12.642Z,54.60
2019-01-17T05:27:39.464Z,54.70
2019-01-17T05:30:18.424Z,54.80
2019-01-17T05:32:46.905Z,54.70
2019-01-17T05:35:15.422Z,55.00
2019-01-17T05:37:43.923Z,54.80
2019-01-17T05:40:17.780Z,54.90
2019-01-17T05:42:46.316Z,54.90
2019-01-17T05:45:15.000Z,54.90
2019-01-17T05:47:43.470Z,54.90
2019-01-17T05:50:14.632Z,55.00
2019-01-17T05:52:43.034Z,55.10
2019-01-17T05:55:11.788Z,55.30
2019-01-17T05:57:40.275Z,55.20
2019-01-17T06:00:11.955Z,55.20
2019-01-17T06:02:40.399Z,55.30
2019-01-17T06:05:09.230Z,55.20
2019-01-17T06:07:37.653Z,55.30
2019-01-17T06:10:09.089Z,55.30
2019-01-17T06:12:37.494Z,55.40
2019-01-17T06:15:08.718Z,55.60
2019-01-17T06:17:37.141Z,56.40
2019-01-17T06:20:08.660Z,56.90
2019-01-17T06:22:37.060Z,57.00
2019-01-17T06:25:06.544Z,57.30
2019-01-17T06:27:34.985Z,58.20
2019-01-17T06:30:04.157Z,57.60
2019-01-17T06:32:32.617Z,57.60
2019-01-17T06:35:01.476Z,57.50
2019-01-17T06:37:29.997Z,57.40
2019-01-17T06:39:58.389Z,57.20
2019-01-17T06:42:26.789Z,56.90
2019-01-17T06:44:55.213Z,56.80
2019-01-17T06:47:23.631Z,57.00
2019-01-17T06:49:52.090Z,57.00
2019-01-17T06:52:20.497Z,57.00
2019-01-17T06:54:48.902Z,57.00
2019-01-17T06:57:17.413Z,57.80
2019-01-17T06:59:45.822Z,57.70
2019-01-17T07:02:14.284Z,57.20
2019-01-17T07:04:42.763Z,56.00
2019-01-17T07:07:11.214Z,56.30
2019-01-17T07:09:39.606Z,56.30
2019-01-17T07:12:08.057Z,55.50
2019-01-17T07:14:36.551Z,55.10
2019-01-17T07:17:05.013Z,54.60
2019-01-17T07:19:33.437Z,55.10
2019-01-17T07:22:01.849Z,55.40
2019-01-17T07:24:30.290Z,55.50
2019-01-17T07:26:58.988Z,55.40
2019-01-17T07:29:27.426Z,55.40
2019-01-17T07:31:55.820Z,55.10
2019-01-17T07:34:24.239Z,55.10
2019-01-17T07:36:52.679Z,54.90
2019-01-17T07:39:21.157Z,54.80
2019-01-17T07:41:49.625Z,54.60
2019-01-17T07:44:18.063Z,54.20
2019-01-17T07:46:46.468Z,53.70
2019-01-17T07:49:14.900Z,53.70
2019-01-17T07:51:43.305Z,53.50
2019-01-17T07:54:11.737Z,53.00
2019-01-17T07:56:40.170Z,52.30
2019-01-17T07:59:08.568Z,52.40
2019-01-17T08:01:36.966Z,52.10
2019-01-17T08:04:05.680Z,52.40
2019-01-17T08:06:34.235Z,51.40
2019-01-17T08:09:03.197Z,51.60
2019-01-17T08:11:31.589Z,50.90
2019-01-17T08:14:00.018Z,50.60
2019-01-17T08:16:28.415Z,50.20
2019-01-17T08:18:56.897Z,50.10
2019-01-17T08:21:26.026Z,49.80
2019-01-17T08:23:54.600Z,49.60
2019-01-17T08:26:22.981Z,49.20
2019-01-17T08:28:51.434Z,49.10
2019-01-17T08:31:19.953Z,49.10
2019-01-17T08:33:48.370Z,48.60
2019-01-17T08:36:16.844Z,48.60
2019-01-17T08:38:45.320Z,48.30
2019-01-17T08:41:13.809Z,48.00
2019-01-17T08:43:42.193Z,47.90
2019-01-17T08:46:10.648Z,47.70
2019-01-17T08:48:39.092Z,47.50
2019-01-17T08:51:07.539Z,47.30
2019-01-17T08:53:35.910Z,47.30
2019-01-17T08:56:05.086Z,46.90
2019-01-17T08:58:33.474Z,47.00
2019-01-17T09:01:02.232Z,46.50
2019-01-17T09:03:30.633Z,46.70
2019-01-17T09:05:59.296Z,46.50
2019-01-17T09:08:27.692Z,46.50
2019-01-17T09:10:56.117Z,46.20
2019-01-17T09:13:25.878Z,46.40
2019-01-17T09:15:54.328Z,46.60
2019-01-17T09:18:22.810Z,46.40
2019-01-17T09:20:51.533Z,46.20
2019-01-17T09:23:19.941Z,46.00
2019-01-17T09:25:48.352Z,46.20
2019-01-17T09:28:16.748Z,45.70
2019-01-17T09:30:45.237Z,45.60
2019-01-17T09:33:13.637Z,45.70
2019-01-17T09:35:43.447Z,45.50
2019-01-17T09:38:12.060Z,45.30
2019-01-17T09:40:40.512Z,45.30
2019-01-17T09:43:08.942Z,45.60
2019-01-17T09:45:37.471Z,45.20
2019-01-17T09:48:05.951Z,44.90
2019-01-17T09:50:34.457Z,45.10
2019-01-17T09:53:02.960Z,45.10
2019-01-17T09:55:31.398Z,45.00
2019-01-17T09:57:59.821Z,45.40
2019-01-17T10:00:29.646Z,45.60
2019-01-17T10:02:58.096Z,45.60
2019-01-17T10:05:26.568Z,45.90
2019-01-17T10:07:55.060Z,45.80
2019-01-17T10:10:25.004Z,46.10
2019-01-17T10:12:53.448Z,46.30
2019-01-17T10:15:33.908Z,46.70
2019-01-17T10:18:22.127Z,47.00
2019-01-17T10:21:02.573Z,47.00
2019-01-17T10:24:07.673Z,47.40
2019-01-17T10:27:02.652Z,47.00
2019-01-17T10:29:42.933Z,47.20
2019-01-17T10:32:33.952Z,47.10
2019-01-17T10:35:26.287Z,46.80
2019-01-17T10:38:18.961Z,46.60
2019-01-17T10:41:16.369Z,46.80
2019-01-17T10:44:15.060Z,46.70
2019-01-17T10:46:49.421Z,46.80
2019-01-17T10:49:43.301Z,46.80
2019-01-17T10:52:37.548Z,47.00
2019-01-17T10:55:35.257Z,47.30
2019-01-17T10:58:27.789Z,47.30
2019-01-17T11:01:08.074Z,47.40
2019-01-17T11:03:48.408Z,47.10
2019-01-17T11:06:41.062Z,47.30
2019-01-17T11:09:35.755Z,47.10
2019-01-17T11:12:18.984Z,47.20
2019-01-17T11:15:09.901Z,47.50
2019-01-17T11:17:56.672Z,47.50
2019-01-17T11:20:30.813Z,47.40
2019-01-17T11:23:08.067Z,47.50
2019-01-17T11:25:42.439Z,47.50
2019-01-17T11:28:36.405Z,47.50
2019-01-17T11:31:13.537Z,47.50
2019-01-17T11:34:08.901Z,47.60
2019-01-17T11:36:40.440Z,47.80
2019-01-17T11:39:32.864Z,48.10
2019-01-17T11:42:33.092Z,48.20
2019-01-17T11:45:07.197Z,48.40
2019-01-17T11:47:44.730Z,48.60
2019-01-17T11:50:22.053Z,48.50
2019-01-17T11:52:56.097Z,48.70
2019-01-17T11:55:59.069Z,48.60
2019-01-17T11:58:51.964Z,48.70
2019-01-17T12:01:24.610Z,48.70
2019-01-17T12:04:08.041Z,49.00
2019-01-17T12:06:36.549Z,49.20
2019-01-17T12:09:06.656Z,49.50
2019-01-17T12:11:35.074Z,49.80
2019-01-17T12:14:03.698Z,49.90
2019-01-17T12:16:32.226Z,49.80
2019-01-17T12:19:00.652Z,50.00
2019-01-17T12:21:29.085Z,49.90
2019-01-17T12:23:57.484Z,50.10
2019-01-17T12:26:25.934Z,50.30
2019-01-17T12:28:54.338Z,50.50
2019-01-17T12:31:22.788Z,50.70
2019-01-17T12:33:51.213Z,51.00
2019-01-17T12:36:19.814Z,50.50
2019-01-17T12:38:48.242Z,50.90
2019-01-17T12:41:16.672Z,50.70
2019-01-17T12:43:45.100Z,50.80
2019-01-17T12:46:14.224Z,51.00
2019-01-17T12:48:42.680Z,51.30
2019-01-17T12:51:11.109Z,51.60
2019-01-17T12:53:39.621Z,51.40
2019-01-17T12:56:08.047Z,51.70
2019-01-17T12:58:37.114Z,52.00
2019-01-17T13:01:05.611Z,53.10
2019-01-17T13:03:34.029Z,53.70
2019-01-17T13:06:02.774Z,54.20
2019-01-17T13:08:31.218Z,54.40
2019-01-17T13:10:59.681Z,54.80
2019-01-17T13:13:28.197Z,55.30
2019-01-17T13:15:56.834Z,56.40
2019-01-17T13:18:25.237Z,56.40
2019-01-17T13:20:53.727Z,57.20
2019-01-17T13:23:22.201Z,57.50
2019-01-17T13:25:50.618Z,58.40
2019-01-17T13:28:19.349Z,58.60
2019-01-17T13:30:47.870Z,59.10
2019-01-17T13:33:16.327Z,59.50
2019-01-17T13:35:45.283Z,59.50
2019-01-17T13:38:13.803Z,59.40
2019-01-17T13:40:42.265Z,60.70
2019-01-17T13:43:10.660Z,60.60
2019-01-17T13:45:39.126Z,60.90
2019-01-17T13:48:08.018Z,61.10
2019-01-17T13:50:36.441Z,61.70
2019-01-17T13:53:04.993Z,62.00
2019-01-17T13:55:33.521Z,63.10
2019-01-17T13:58:01.909Z,63.80
2019-01-17T14:00:30.854Z,64.70
2019-01-17T14:02:59.348Z,65.60
2019-01-17T14:05:27.756Z,67.10
2019-01-17T14:07:56.200Z,67.60
2019-01-17T14:10:24.711Z,67.20
2019-01-17T14:12:53.132Z,68.60
2019-01-17T14:15:27.473Z,69.30
2019-01-17T14:17:56.131Z,70.40
2019-01-17T14:20:24.521Z,70.80
2019-01-17T14:22:53.037Z,70.40
2019-01-17T14:25:22.292Z,70.60
2019-01-17T14:27:50.727Z,70.70
2019-01-17T14:30:31.578Z,69.80
2019-01-17T14:33:00.199Z,70.50
2019-01-17T14:35:28.717Z,69.80
2019-01-17T14:37:57.212Z,69.40
2019-01-17T14:40:25.718Z,69.90
2019-01-17T14:42:54.133Z,69.90
2019-01-17T14:45:23.080Z,70.10
2019-01-17T14:47:51.513Z,69.40
2019-01-17T14:50:26.023Z,68.70
2019-01-17T14:52:54.860Z,68.80
2019-01-17T14:55:23.277Z,68.40
2019-01-17T14:57:51.879Z,67.90
2019-01-17T15:00:25.861Z,67.50
2019-01-17T15:02:54.291Z,67.00
2019-01-17T15:05:22.722Z,65.00
2019-01-17T15:07:51.245Z,64.70
2019-01-17T15:10:22.746Z,65.00
2019-01-17T15:12:51.187Z,64.50
2019-01-17T15:15:19.658Z,64.20
2019-01-17T15:17:48.203Z,63.20
2019-01-17T15:20:18.909Z,62.50
2019-01-17T15:22:48.565Z,61.80
2019-01-17T15:25:17.029Z,61.20
2019-01-17T15:27:45.521Z,61.30
2019-01-17T15:30:22.734Z,60.60
2019-01-17T15:32:51.216Z,61.00
2019-01-17T15:35:19.618Z,59.70
2019-01-17T15:37:48.142Z,59.70
2019-01-17T15:40:19.345Z,59.80
2019-01-17T15:42:47.794Z,59.00
2019-01-17T15:45:16.361Z,58.80
2019-01-17T15:47:44.873Z,58.70
2019-01-17T15:50:15.873Z,59.10
2019-01-17T15:52:44.360Z,58.50
2019-01-17T15:55:14.517Z,58.80
2019-01-17T15:57:42.978Z,58.90
2019-01-17T16:00:22.855Z,58.50
2019-01-17T16:02:51.664Z,57.90
2019-01-17T16:05:20.435Z,57.90
2019-01-17T16:07:49.269Z,57.70
2019-01-17T16:10:17.674Z,57.90
2019-01-17T16:12:46.118Z,57.50
2019-01-17T16:15:22.783Z,58.30
2019-01-17T16:17:51.687Z,57.50
2019-01-17T16:20:20.142Z,57.90
2019-01-17T16:22:49.995Z,57.20
2019-01-17T16:25:18.403Z,57.20
2019-01-17T16:27:52.767Z,57.20
2019-01-17T16:30:25.282Z,57.00
2019-01-17T16:32:53.732Z,57.60
2019-01-17T16:35:22.217Z,57.70
2019-01-17T16:37:50.628Z,57.60
2019-01-17T16:40:19.176Z,57.30
2019-01-17T16:42:47.888Z,57.10
2019-01-17T16:45:18.989Z,56.90
2019-01-17T16:47:53.156Z,57.00
2019-01-17T16:50:23.611Z,57.40
2019-01-17T16:52:52.373Z,56.60
2019-01-17T16:55:20.875Z,57.10
2019-01-17T16:57:49.568Z,56.20
2019-01-17T17:00:30.574Z,56.00
2019-01-17T17:02:58.997Z,56.40
2019-01-17T17:05:27.497Z,56.40
2019-01-17T17:07:55.998Z,56.20
2019-01-17T17:10:24.569Z,56.80
2019-01-17T17:12:53.057Z,56.50
2019-01-17T17:15:21.504Z,56.80
2019-01-17T17:17:50.076Z,56.00
2019-01-17T17:20:20.985Z,56.20
2019-01-17T17:22:49.421Z,55.90
2019-01-17T17:25:17.942Z,56.80
2019-01-17T17:27:46.725Z,56.60
2019-01-17T17:30:20.328Z,56.90
2019-01-17T17:32:48.758Z,56.70
2019-01-17T17:35:17.348Z,56.20
2019-01-17T17:37:45.843Z,56.80
2019-01-17T17:40:17.390Z,56.80
2019-01-17T17:42:45.817Z,56.30
2019-01-17T17:45:14.385Z,56.30
2019-01-17T17:47:42.892Z,56.30
2019-01-17T17:50:15.105Z,56.80
2019-01-17T17:52:43.697Z,55.90
2019-01-17T17:55:14.205Z,55.60
2019-01-17T17:57:43.312Z,55.10
2019-01-17T18:00:18.649Z,54.50
2019-01-17T18:02:47.713Z,53.80
2019-01-17T18:05:16.202Z,53.60
2019-01-17T18:07:44.718Z,53.30
2019-01-17T18:10:15.814Z,53.10
2019-01-17T18:12:44.985Z,53.00
2019-01-17T18:15:19.336Z,53.00
2019-01-17T18:17:48.048Z,52.00
2019-01-17T18:20:17.408Z,52.30
2019-01-17T18:22:45.882Z,52.40
2019-01-17T18:25:14.755Z,52.00
2019-01-17T18:27:43.223Z,52.40
2019-01-17T18:30:20.100Z,52.70
2019-01-17T18:32:48.715Z,53.00
2019-01-17T18:35:17.626Z,53.10
2019-01-17T18:37:46.134Z,53.40
2019-01-17T18:40:21.955Z,54.10
2019-01-17T18:42:50.353Z,54.20
2019-01-17T18:45:24.078Z,54.70
2019-01-17T18:47:52.529Z,55.00
2019-01-17T18:50:23.478Z,55.10
2019-01-17T18:52:51.949Z,55.20
2019-01-17T18:55:20.553Z,55.40
2019-01-17T18:57:48.948Z,55.70
2019-01-17T19:00:26.886Z,55.80
2019-01-17T19:02:55.636Z,55.40
2019-01-17T19:05:24.577Z,56.20
2019-01-17T19:07:53.252Z,55.70
2019-01-17T19:10:21.937Z,55.80
2019-01-17T19:12:50.549Z,55.90
2019-01-17T19:15:21.523Z,56.10
2019-01-17T19:17:49.979Z,56.00
2019-01-17T19:20:20.203Z,56.10
2019-01-17T19:22:48.657Z,56.10
2019-01-17T19:25:17.220Z,56.40
2019-01-17T19:27:45.704Z,56.20
2019-01-17T19:30:17.153Z,56.20
2019-01-17T19:32:45.631Z,56.20
2019-01-17T19:35:14.509Z,57.30
2019-01-17T19:37:43.185Z,56.40
2019-01-17T19:40:15.542Z,55.70
2019-01-17T19:42:44.075Z,55.50
2019-01-17T19:45:14.230Z,56.00
2019-01-17T19:47:43.137Z,56.10
2019-01-17T19:50:20.563Z,56.10
2019-01-17T19:52:49.052Z,56.20
2019-01-17T19:55:17.457Z,56.20
2019-01-17T19:57:45.936Z,56.60
2019-01-17T20:00:17.264Z,56.60
2019-01-17T20:02:46.237Z,56.50
2019-01-17T20:05:17.530Z,56.90
2019-01-17T20:07:45.988Z,56.20
2019-01-17T20:10:17.617Z,56.30
2019-01-17T20:12:46.092Z,56.30
2019-01-17T20:15:14.783Z,56.10
2019-01-17T20:17:43.184Z,55.60
2019-01-17T20:20:14.364Z,55.90
2019-01-17T20:22:42.829Z,55.90
2019-01-17T20:25:11.345Z,55.90
2019-01-17T20:27:39.830Z,56.10
2019-01-17T20:30:28.783Z,55.60
2019-01-17T20:32:58.943Z,55.90
2019-01-17T20:35:27.351Z,55.50
2019-01-17T20:37:55.933Z,55.60
2019-01-17T20:40:25.380Z,55.50
2019-01-17T20:42:53.844Z,55.80
2019-01-17T20:45:22.649Z,56.10
2019-01-17T20:47:51.078Z,56.00
2019-01-17T20:50:22.221Z,56.00
2019-01-17T20:52:50.704Z,57.30
2019-01-17T20:55:19.226Z,59.40
2019-01-17T20:57:48.260Z,61.70
2019-01-17T21:00:28.581Z,63.80
2019-01-17T21:02:57.115Z,65.50
2019-01-17T21:05:26.560Z,67.10
2019-01-17T21:07:55.281Z,67.10
2019-01-17T21:10:23.775Z,67.30
2019-01-17T21:12:52.261Z,68.50
2019-01-17T21:15:20.681Z,67.70
2019-01-17T21:17:49.241Z,67.40
2019-01-17T21:20:18.758Z,67.00
2019-01-17T21:22:47.757Z,67.30
2019-01-17T21:25:20.776Z,67.60
2019-01-17T21:27:49.252Z,66.40
2019-01-17T21:30:23.135Z,66.50
2019-01-17T21:32:51.613Z,65.60
2019-01-17T21:35:20.321Z,64.90
2019-01-17T21:37:48.840Z,64.80
2019-01-17T21:40:19.577Z,64.60
2019-01-17T21:42:47.993Z,64.90
2019-01-17T21:45:18.129Z,63.70
2019-01-17T21:47:46.601Z,62.80
2019-01-17T21:50:32.238Z,63.10
2019-01-17T21:53:00.897Z,63.30
2019-01-17T21:55:29.293Z,63.00
2019-01-17T21:57:57.768Z,63.60
2019-01-17T22:00:28.762Z,63.80
2019-01-17T22:02:57.209Z,63.60
2019-01-17T22:05:25.625Z,63.60
2019-01-17T22:07:54.049Z,63.10
2019-01-17T22:10:22.500Z,63.40
2019-01-17T22:12:51.270Z,63.00
2019-01-17T22:15:25.048Z,63.40
2019-01-17T22:17:53.895Z,63.90
2019-01-17T22:20:22.466Z,62.80
2019-01-17T22:22:51.546Z,63.60
2019-01-17T22:25:20.895Z,63.30
2019-01-17T22:27:53.570Z,62.30
2019-01-17T22:30:29.888Z,61.90
2019-01-17T22:32:58.324Z,62.90
2019-01-17T22:35:26.815Z,63.80
2019-01-17T22:37:55.231Z,62.60
2019-01-17T22:40:23.693Z,62.30
2019-01-17T22:42:52.470Z,62.90
2019-01-17T22:45:26.300Z,61.70
2019-01-17T22:47:54.697Z,62.10
2019-01-17T22:50:23.190Z,62.60
2019-01-17T22:52:52.149Z,61.60
2019-01-17T22:55:20.550Z,61.70
2019-01-17T22:57:48.962Z,61.60
2019-01-17T23:00:47.172Z,61.70
2019-01-17T23:03:15.638Z,59.80
2019-01-17T23:05:44.032Z,60.60
2019-01-17T23:08:12.518Z,60.70
2019-01-17T23:10:41.417Z,60.20
2019-01-17T23:13:09.869Z,60.00
2019-01-17T23:15:38.284Z,60.10
2019-01-17T23:18:06.761Z,60.30
2019-01-17T23:20:35.157Z,60.00
2019-01-17T23:23:03.625Z,60.00
2019-01-17T23:25:32.129Z,59.20
2019-01-17T23:28:00.529Z,59.00
2019-01-17T23:30:28.953Z,58.60
2019-01-17T23:32:57.341Z,58.20
2019-01-17T23:35:25.752Z,57.80
2019-01-17T23:37:54.175Z,57.50
2019-01-17T23:40:22.601Z,56.90
2019-01-17T23:42:50.994Z,57.30
2019-01-17T23:45:19.464Z,57.20
2019-01-17T23:47:47.898Z,57.50
2019-01-17T23:50:16.448Z,57.80
2019-01-17T23:52:44.876Z,59.20
2019-01-17T23:55:13.310Z,60.30
2019-01-17T23:57:42.021Z,61.70
